Time;durP1;ratioP1;P1;durP2;ratioP2;P2;SDS_P1;SDS_P2;PMS_P1;PMS_P2;Temp;Humidity;BMP_temperature;BMP_pressure;BME280_temperature;BME280_humidity;BME280_pressure;Samples;Min_cycle;Max_cycle;Signal;HPM_P1;HPM_P2
2023/09/29 00:01:46;;;;;;;;;;;;;;;;;;5074494;28;20078;-77
2023/09/29 00:04:12;;;;;;;;;;;;;;;;;;5074564;28;19989;-75
2023/09/29 00:06:38;;;;;;;;;;;;;;;;;;5074847;28;20013;-75
2023/09/29 00:09:07;;;;;;;;;;;;;;;;;;5074428;28;20011;-73
2023/09/29 00:11:33;;;;;;;;;;;;;;;;;;5074275;28;19986;-73
2023/09/29 00:13:59;;;;;;;;;;;;;;;;;;5074389;28;19985;-73
2023/09/29 00:16:24;;;;;;;;;;;;;;;;;;5074462;28;19993;-73
2023/09/29 00:18:50;;;;;;;;;;;;;;;;;;5074089;28;19982;-73
2023/09/29 00:21:16;;;;;;;;;;;;;;;;;;5074376;28;20015;-73
2023/09/29 00:23:42;;;;;;;;;;;;;;;;;;5074476;28;20072;-73
2023/09/29 00:26:09;;;;;;;;;;;;;;;;;;5074101;28;19985;-72
2023/09/29 00:28:35;;;;;;;;;;;;;;;;;;5074171;28;19988;-73
2023/09/29 00:31:02;;;;;;;;;;;;;;;;;;5074052;28;20087;-74
2023/09/29 00:33:28;;;;;;;;;;;;;;;;;;5074034;28;19985;-73
2023/09/29 00:35:54;;;;;;;;;;;;;;;;;;5074242;28;19993;-74
2023/09/29 00:38:20;;;;;;;;;;;;;;;;;;5074054;28;20027;-74
2023/09/29 00:40:46;;;;;;;;;;;;;;;;;;5073894;28;19986;-74
2023/09/29 00:43:15;;;;;;;;;;;;;;;;;;5073918;28;20059;-73
2023/09/29 00:45:42;;;;;;;;;;;;;;;;;;5073792;28;20029;-73
2023/09/29 00:48:10;;;;;;;;;;;;;;;;;;5073842;28;19985;-74
2023/09/29 00:50:36;;;;;;;;;;;;;;;;;;5073659;28;20142;-74
2023/09/29 00:53:07;;;;;;;;;;;;;;;;;;5073635;28;20080;-74
2023/09/29 00:55:34;;;;;;;;;;;;;;;;;;5073862;28;19989;-74
2023/09/29 00:58:00;;;;;;;;;;;;;;;;;;5072818;28;20388;-73
2023/09/29 01:02:55;;;;;;;;;;;;;;;;;;5073538;28;20009;-75
2023/09/29 01:05:20;;;;;;;;;;;;;;;;;;5073746;28;20011;-75
2023/09/29 01:07:46;;;;;;;;;;;;;;;;;;5073423;28;20072;-73
2023/09/29 01:10:16;;;;;;;;;;;;;;;;;;5073364;28;19986;-74
2023/09/29 01:12:41;;;;;;;;;;;;;;;;;;5073431;28;19989;-74
2023/09/29 01:15:12;;;;;;;;;;;;;;;;;;5073253;28;20469;-75
2023/09/29 01:17:38;;;;;;;;;;;;;;;;;;5073513;28;20042;-75
2023/09/29 01:20:06;;;;;;;;;;;;;;;;;;5073383;28;20352;-75
2023/09/29 01:22:33;;;;;;;;;;;;;;;;;;5073067;28;20013;-74
2023/09/29 01:24:59;;;;;;;;;;;;;;;;;;5073257;28;19993;-75
2023/09/29 01:27:25;;;;;;;;;;;;;;;;;;5073172;28;19992;-74
2023/09/29 01:29:52;;;;;;;;;;;;;;;;;;5073001;28;19986;-75
2023/09/29 01:32:18;;;;;;;;;;;;;;;;;;5073060;28;19990;-75
2023/09/29 01:34:45;;;;;;;;;;;;;;;;;;5073032;28;19989;-75
2023/09/29 01:37:13;;;;;;;;;;;;;;;;;;5072820;28;20046;-75
2023/09/29 01:39:39;;;;;;;;;;;;;;;;;;5072994;28;20008;-74
2023/09/29 01:42:07;;;;;;;;;;;;;;;;;;5072876;28;20474;-74
2023/09/29 01:44:33;;;;;;;;;;;;;;;;;;5072813;28;20025;-75
2023/09/29 01:46:59;;;;;;;;;;;;;;;;;;5072893;28;19982;-76
2023/09/29 01:49:25;;;;;;;;;;;;;;;;;;5071444;28;19993;-76
2023/09/29 01:51:51;;;;;;;;;;;;;;;;;;5072677;28;19986;-75
2023/09/29 01:54:17;;;;;;;;;;;;;;;;;;5072876;28;19985;-76
2023/09/29 01:56:43;;;;;;;;;;;;;;;;;;5072598;28;20032;-75
2023/09/29 01:59:10;;;;;;;;;;;;;;;;;;5072664;28;20004;-74
2023/09/29 02:01:37;;;;;;;;;;;;;;;;;;5072483;28;20041;-74
2023/09/29 02:04:03;;;;;;;;;;;;;;;;;;5072537;28;20008;-74
2023/09/29 02:06:29;;;;;;;;;;;;;;;;;;5072343;28;20004;-75
2023/09/29 02:08:57;;;;;;;;;;;;;;;;;;5072120;28;19985;-74
2023/09/29 02:11:23;;;;;;;;;;;;;;;;;;5072210;28;20488;-74
2023/09/29 02:13:49;;;;;;;;;;;;;;;;;;5072344;28;19989;-75
2023/09/29 02:16:15;;;;;;;;;;;;;;;;;;5072131;28;19981;-75
2023/09/29 02:18:41;;;;;;;;;;;;;;;;;;5072226;28;19993;-75
2023/09/29 02:21:07;;;;;;;;;;;;;;;;;;5071805;28;19992;-76
2023/09/29 02:23:38;;;;;;;;;;;;;;;;;;5072056;28;19992;-76
2023/09/29 02:26:05;;;;;;;;;;;;;;;;;;5071847;28;20499;-75
2023/09/29 02:28:32;;;;;;;;;;;;;;;;;;5071891;28;20052;-72
2023/09/29 02:30:58;;;;;;;;;;;;;;;;;;5071842;28;19985;-71
2023/09/29 02:33:24;;;;;;;;;;;;;;;;;;5070460;28;19991;-71
2023/09/29 02:35:52;;;;;;;;;;;;;;;;;;5071934;28;20558;-71
2023/09/29 02:38:18;;;;;;;;;;;;;;;;;;5071635;28;19981;-69
2023/09/29 02:40:47;;;;;;;;;;;;;;;;;;5070246;28;19997;-71
2023/09/29 02:43:12;;;;;;;;;;;;;;;;;;5070459;28;20017;-70
2023/09/29 02:45:40;;;;;;;;;;;;;;;;;;5071513;28;20124;-70
2023/09/29 02:48:06;;;;;;;;;;;;;;;;;;5071749;28;19985;-69
2023/09/29 02:50:35;;;;;;;;;;;;;;;;;;5070298;28;20337;-68
2023/09/29 02:53:02;;;;;;;;;;;;;;;;;;5071489;28;20339;-69
2023/09/29 02:55:28;;;;;;;;;;;;;;;;;;5071694;28;19990;-68
2023/09/29 02:57:54;;;;;;;;;;;;;;;;;;5071494;28;19981;-67
2023/09/29 03:00:26;;;;;;;;;;;;;;;;;;5071466;28;20072;-70
2023/09/29 03:02:52;;;;;;;;;;;;;;;;;;5071229;28;20036;-69
2023/09/29 03:05:18;;;;;;;;;;;;;;;;;;5071437;28;20369;-69
2023/09/29 03:07:44;;;;;;;;;;;;;;;;;;5066743;28;20073;-69
2023/09/29 03:10:10;;;;;;;;;;;;;;;;;;5051240;28;20336;-70
2023/09/29 03:12:36;;;;;;;;;;;;;;;;;;5051728;28;20076;-69
2023/09/29 03:15:03;;;;;;;;;;;;;;;;;;5051172;28;19997;-69
2023/09/29 03:17:29;;;;;;;;;;;;;;;;;;5051328;28;19985;-68
2023/09/29 03:19:55;;;;;;;;;;;;;;;;;;5051264;28;19993;-68
2023/09/29 03:22:21;;;;;;;;;;;;;;;;;;5053470;28;20010;-69
2023/09/29 03:24:47;;;;;;;;;;;;;;;;;;5053532;28;19982;-67
2023/09/29 03:27:13;;;;;;;;;;;;;;;;;;5054470;28;20065;-69
2023/09/29 03:29:40;;;;;;;;;;;;;;;;;;5055177;28;19982;-69
2023/09/29 03:32:08;;;;;;;;;;;;;;;;;;5055082;28;20032;-70
2023/09/29 03:34:34;;;;;;;;;;;;;;;;;;5054943;28;19985;-71
2023/09/29 03:37:00;;;;;;;;;;;;;;;;;;5055022;28;20350;-70
2023/09/29 03:39:26;;;;;;;;;;;;;;;;;;5054904;28;20035;-69
2023/09/29 03:41:52;;;;;;;;;;;;;;;;;;5054822;28;20021;-68
2023/09/29 03:44:18;;;;;;;;;;;;;;;;;;5054220;28;20018;-69
2023/09/29 03:46:44;;;;;;;;;;;;;;;;;;5054780;28;19982;-69
2023/09/29 03:49:13;;;;;;;;;;;;;;;;;;5054736;28;19985;-68
2023/09/29 03:51:39;;;;;;;;;;;;;;;;;;5054786;28;19989;-70
2023/09/29 03:54:05;;;;;;;;;;;;;;;;;;5054611;28;19985;-69
2023/09/29 03:56:31;;;;;;;;;;;;;;;;;;5054537;28;20064;-69
2023/09/29 03:58:58;;;;;;;;;;;;;;;;;;5054607;28;19990;-67
2023/09/29 04:01:27;;;;;;;;;;;;;;;;;;5054503;28;20055;-67
2023/09/29 04:03:54;;;;;;;;;;;;;;;;;;5053156;28;20081;-66
2023/09/29 04:06:20;;;;;;;;;;;;;;;;;;5054250;28;20097;-68
2023/09/29 04:08:47;;;;;;;;;;;;;;;;;;5054433;28;20081;-68
2023/09/29 04:11:12;;;;;;;;;;;;;;;;;;5053775;28;20016;-69
2023/09/29 04:13:39;;;;;;;;;;;;;;;;;;5054144;28;19986;-68
2023/09/29 04:16:05;;;;;;;;;;;;;;;;;;5054266;28;19986;-67
2023/09/29 04:18:31;;;;;;;;;;;;;;;;;;5053903;28;19993;-68
2023/09/29 04:20:57;;;;;;;;;;;;;;;;;;5054249;28;19985;-69
2023/09/29 04:23:23;;;;;;;;;;;;;;;;;;5054213;28;19993;-69
2023/09/29 04:25:50;;;;;;;;;;;;;;;;;;5054053;28;20442;-69
2023/09/29 04:28:16;;;;;;;;;;;;;;;;;;5054168;28;20123;-69
2023/09/29 04:30:42;;;;;;;;;;;;;;;;;;5054079;28;20001;-70
2023/09/29 04:33:08;;;;;;;;;;;;;;;;;;5052839;28;19986;-70
2023/09/29 04:35:34;;;;;;;;;;;;;;;;;;5054140;28;19994;-69
2023/09/29 04:38:01;;;;;;;;;;;;;;;;;;5053734;28;19982;-69
2023/09/29 04:40:28;;;;;;;;;;;;;;;;;;5053690;28;19990;-70
2023/09/29 04:42:54;;;;;;;;;;;;;;;;;;5053788;28;20051;-70
2023/09/29 04:45:20;;;;;;;;;;;;;;;;;;5053550;28;20056;-71
2023/09/29 04:47:46;;;;;;;;;;;;;;;;;;5053565;28;19985;-69
2023/09/29 04:50:14;;;;;;;;;;;;;;;;;;5053497;28;20090;-70
2023/09/29 04:52:40;;;;;;;;;;;;;;;;;;5053846;28;19986;-68
2023/09/29 04:55:05;;;;;;;;;;;;;;;;;;5053504;28;20060;-71
2023/09/29 04:57:32;;;;;;;;;;;;;;;;;;5053585;28;19982;-68
2023/09/29 04:59:58;;;;;;;;;;;;;;;;;;5053477;28;19993;-67
2023/09/29 05:02:28;;;;;;;;;;;;;;;;;;5053105;28;20017;-67
2023/09/29 05:04:54;;;;;;;;;;;;;;;;;;5053421;28;20005;-69
2023/09/29 05:07:20;;;;;;;;;;;;;;;;;;5053392;28;19982;-68
2023/09/29 05:09:46;;;;;;;;;;;;;;;;;;5053380;28;20089;-66
2023/09/29 05:12:13;;;;;;;;;;;;;;;;;;5053417;28;19986;-68
2023/09/29 05:14:40;;;;;;;;;;;;;;;;;;5053252;28;20013;-67
2023/09/29 05:17:06;;;;;;;;;;;;;;;;;;5053232;28;19985;-69
2023/09/29 05:19:33;;;;;;;;;;;;;;;;;;5053430;28;19994;-69
2023/09/29 05:21:59;;;;;;;;;;;;;;;;;;5052976;28;20005;-69
2023/09/29 05:24:25;;;;;;;;;;;;;;;;;;5053117;28;19986;-72
2023/09/29 05:26:51;;;;;;;;;;;;;;;;;;5053062;28;20509;-72
2023/09/29 05:29:17;;;;;;;;;;;;;;;;;;5052875;28;19993;-72
2023/09/29 05:31:43;;;;;;;;;;;;;;;;;;5052992;28;19993;-73
2023/09/29 05:34:09;;;;;;;;;;;;;;;;;;5053132;28;20032;-73
2023/09/29 05:36:35;;;;;;;;;;;;;;;;;;5052783;28;19989;-73
2023/09/29 05:39:01;;;;;;;;;;;;;;;;;;5052630;28;20001;-73
2023/09/29 05:41:27;;;;;;;;;;;;;;;;;;5052475;28;20006;-75
2023/09/29 05:43:53;;;;;;;;;;;;;;;;;;5050568;28;20113;-75
2023/09/29 05:46:19;;;;;;;;;;;;;;;;;;5050857;28;20049;-72
2023/09/29 05:48:45;;;;;;;;;;;;;;;;;;5050985;28;19986;-74
2023/09/29 05:51:11;;;;;;;;;;;;;;;;;;5051040;28;20065;-74
2023/09/29 05:53:37;;;;;;;;;;;;;;;;;;5051191;28;19985;-76
2023/09/29 05:56:03;;;;;;;;;;;;;;;;;;5051173;28;20064;-75
2023/09/29 05:58:30;;;;;;;;;;;;;;;;;;5052355;28;19990;-75
2023/09/29 06:00:56;;;;;;;;;;;;;;;;;;5052240;28;20080;-75
2023/09/29 06:03:22;;;;;;;;;;;;;;;;;;5071039;28;20096;-73
2023/09/29 06:05:48;;;;;;;;;;;;;;;;;;5070780;28;20002;-73
2023/09/29 06:08:14;;;;;;;;;;;;;;;;;;5072326;28;19992;-75
2023/09/29 06:10:40;;;;;;;;;;;;;;;;;;5072710;28;20422;-74
2023/09/29 06:13:06;;;;;;;;;;;;;;;;;;5071943;28;20188;-74
2023/09/29 06:15:32;;;;;;;;;;;;;;;;;;5072244;28;19993;-74
2023/09/29 06:17:58;;;;;;;;;;;;;;;;;;5071928;28;19982;-74
2023/09/29 06:20:24;;;;;;;;;;;;;;;;;;5071388;28;19992;-74
2023/09/29 06:22:50;;;;;;;;;;;;;;;;;;5068719;28;20440;-74
2023/09/29 06:25:16;;;;;;;;;;;;;;;;;;5070206;28;19982;-72
2023/09/29 06:27:42;;;;;;;;;;;;;;;;;;5070137;28;19985;-76
2023/09/29 06:30:08;;;;;;;;;;;;;;;;;;5070079;28;20042;-73
2023/09/29 06:32:34;;;;;;;;;;;;;;;;;;5070301;28;20338;-72
2023/09/29 06:34:59;;;;;;;;;;;;;;;;;;5070382;28;19982;-74
2023/09/29 06:37:25;;;;;;;;;;;;;;;;;;5071835;28;19985;-73
2023/09/29 06:39:52;;;;;;;;;;;;;;;;;;5071571;28;20489;-73
2023/09/29 06:42:18;;;;;;;;;;;;;;;;;;5071690;28;20377;-73
2023/09/29 06:44:44;;;;;;;;;;;;;;;;;;5071542;28;20489;-73
2023/09/29 06:47:10;;;;;;;;;;;;;;;;;;5071804;28;19982;-73
2023/09/29 06:49:36;;;;;;;;;;;;;;;;;;5071466;28;20501;-72
2023/09/29 06:52:02;;;;;;;;;;;;;;;;;;5070596;28;20075;-72
2023/09/29 06:54:27;;;;;;;;;;;;;;;;;;5071634;28;19985;-72
2023/09/29 06:56:53;;;;;;;;;;;;;;;;;;5070703;28;19986;-73
2023/09/29 06:59:19;;;;;;;;;;;;;;;;;;5071444;28;20428;-72
2023/09/29 07:01:45;;;;;;;;;;;;;;;;;;5071646;28;20013;-71
2023/09/29 07:04:11;;;;;;;;;;;;;;;;;;5071304;28;20453;-71
2023/09/29 07:06:37;;;;;;;;;;;;;;;;;;5071210;28;20043;-70
2023/09/29 07:09:07;;;;;;;;;;;;;;;;;;5071432;28;20031;-71
2023/09/29 07:11:33;;;;;;;;;;;;;;;;;;5071408;28;19997;-72
2023/09/29 07:13:59;;;;;;;;;;;;;;;;;;5071114;28;19986;-72
2023/09/29 07:16:24;;;;;;;;;;;;;;;;;;5071520;28;20016;-72
2023/09/29 07:18:50;;;;;;;;;;;;;;;;;;5071290;28;19985;-72
2023/09/29 07:21:16;;;;;;;;;;;;;;;;;;5071140;28;19986;-72
2023/09/29 07:23:42;;;;;;;;;;;;;;;;;;5071755;28;20042;-72
2023/09/29 07:26:08;;;;;;;;;;;;;;;;;;5071258;28;20441;-71
2023/09/29 07:28:34;;;;;;;;;;;;;;;;;;5071534;28;19985;-70
2023/09/29 07:31:00;;;;;;;;;;;;;;;;;;5071135;28;20079;-72
2023/09/29 07:33:26;;;;;;;;;;;;;;;;;;5071422;28;19992;-71
2023/09/29 07:35:52;;;;;;;;;;;;;;;;;;5071113;28;20527;-72
2023/09/29 07:38:18;;;;;;;;;;;;;;;;;;5070980;28;19989;-72
2023/09/29 07:40:46;;;;;;;;;;;;;;;;;;5069964;28;19989;-72
2023/09/29 07:43:11;;;;;;;;;;;;;;;;;;5070613;28;20118;-72
2023/09/29 07:45:37;;;;;;;;;;;;;;;;;;5070717;28;20065;-74
2023/09/29 07:48:03;;;;;;;;;;;;;;;;;;5071039;28;19986;-72
2023/09/29 07:50:29;;;;;;;;;;;;;;;;;;5070909;28;20449;-71
2023/09/29 07:52:55;;;;;;;;;;;;;;;;;;5070789;28;20081;-72
2023/09/29 07:55:21;;;;;;;;;;;;;;;;;;5070952;28;20043;-71
2023/09/29 07:57:47;;;;;;;;;;;;;;;;;;5070783;28;19981;-71
2023/09/29 08:00:15;;;;;;;;;;;;;;;;;;5070709;28;19985;-72
2023/09/29 08:02:41;;;;;;;;;;;;;;;;;;5070743;28;20120;-71
2023/09/29 08:05:07;;;;;;;;;;;;;;;;;;5069451;28;20063;-71
2023/09/29 08:07:33;;;;;;;;;;;;;;;;;;5071610;28;20375;-71
2023/09/29 08:09:59;;;;;;;;;;;;;;;;;;5074687;28;20394;-72
2023/09/29 08:12:25;;;;;;;;;;;;;;;;;;5074454;28;19982;-70
2023/09/29 08:14:51;;;;;;;;;;;;;;;;;;5074294;28;20356;-72
2023/09/29 08:17:20;;;;;;;;;;;;;;;;;;5074393;28;19988;-72
2023/09/29 08:19:47;;;;;;;;;;;;;;;;;;5074284;28;20433;-72
2023/09/29 08:22:13;;;;;;;;;;;;;;;;;;5074237;28;20038;-72
2023/09/29 08:24:38;;;;;;;;;;;;;;;;;;5074389;28;20102;-72
2023/09/29 08:27:04;;;;;;;;;;;;;;;;;;5074195;28;19992;-72
2023/09/29 08:29:30;;;;;;;;;;;;;;;;;;5074208;28;19981;-73
2023/09/29 08:31:58;;;;;;;;;;;;;;;;;;5074134;28;19982;-72
2023/09/29 08:34:24;;;;;;;;;;;;;;;;;;5074288;28;19989;-72
2023/09/29 08:36:51;;;;;;;;;;;;;;;;;;5072786;28;20020;-73
2023/09/29 08:39:17;;;;;;;;;;;;;;;;;;5073954;28;19989;-73
2023/09/29 08:41:43;;;;;;;;;;;;;;;;;;5074106;28;20423;-73
2023/09/29 08:44:09;;;;;;;;;;;;;;;;;;5074030;28;20023;-73
2023/09/29 08:46:35;;;;;;;;;;;;;;;;;;5074262;28;20038;-73
2023/09/29 08:49:03;;;;;;;;;;;;;;;;;;5074182;28;20454;-74
2023/09/29 08:51:28;;;;;;;;;;;;;;;;;;5073903;28;19985;-73
2023/09/29 08:53:56;;;;;;;;;;;;;;;;;;5074132;28;19992;-73
2023/09/29 08:56:22;;;;;;;;;;;;;;;;;;5074090;28;19985;-73
2023/09/29 08:58:48;;;;;;;;;;;;;;;;;;5073969;28;19997;-73
2023/09/29 09:01:14;;;;;;;;;;;;;;;;;;5073814;28;20022;-74
2023/09/29 09:03:39;;;;;;;;;;;;;;;;;;5073619;28;20445;-73
2023/09/29 09:06:05;;;;;;;;;;;;;;;;;;5073417;28;20001;-73
2023/09/29 09:08:31;;;;;;;;;;;;;;;;;;5073752;28;20039;-72
2023/09/29 09:10:58;;;;;;;;;;;;;;;;;;5072326;28;20054;-73
2023/09/29 09:13:26;;;;;;;;;;;;;;;;;;5073247;28;19994;-73
2023/09/29 09:15:52;;;;;;;;;;;;;;;;;;5073623;28;20055;-73
2023/09/29 09:18:18;;;;;;;;;;;;;;;;;;5073448;28;19985;-73
2023/09/29 09:20:44;;;;;;;;;;;;;;;;;;5072859;28;19996;-72
2023/09/29 09:23:11;;;;;;;;;;;;;;;;;;5073423;28;20024;-73
2023/09/29 09:25:38;;;;;;;;;;;;;;;;;;5073420;28;19981;-72
2023/09/29 09:28:04;;;;;;;;;;;;;;;;;;5073068;28;19982;-73
2023/09/29 09:30:37;;;;;;;;;;;;;;;;;;5073046;28;19993;-72
2023/09/29 09:33:04;;;;;;;;;;;;;;;;;;5073169;28;19989;-73
2023/09/29 09:35:30;;;;;;;;;;;;;;;;;;5073345;28;19989;-74
2023/09/29 09:37:56;;;;;;;;;;;;;;;;;;5073021;28;20009;-73
2023/09/29 09:40:24;;;;;;;;;;;;;;;;;;5071588;28;20077;-72
2023/09/29 09:42:50;;;;;;;;;;;;;;;;;;5072795;28;20021;-73
2023/09/29 09:45:16;;;;;;;;;;;;;;;;;;5072809;28;20070;-72
2023/09/29 09:47:42;;;;;;;;;;;;;;;;;;5072712;28;20389;-72
2023/09/29 09:50:08;;;;;;;;;;;;;;;;;;5072847;28;19989;-73
2023/09/29 09:52:34;;;;;;;;;;;;;;;;;;5072506;28;20460;-73
2023/09/29 09:55:02;;;;;;;;;;;;;;;;;;5072857;28;20072;-72
2023/09/29 09:57:29;;;;;;;;;;;;;;;;;;5072683;28;20036;-73
2023/09/29 09:59:55;;;;;;;;;;;;;;;;;;5072566;28;19981;-73
2023/09/29 10:02:21;;;;;;;;;;;;;;;;;;5072342;28;20009;-74
2023/09/29 10:04:47;;;;;;;;;;;;;;;;;;5072374;28;20062;-73
2023/09/29 10:07:14;;;;;;;;;;;;;;;;;;5072710;28;20039;-74
2023/09/29 10:09:41;;;;;;;;;;;;;;;;;;5072263;28;19997;-74
2023/09/29 10:12:09;;;;;;;;;;;;;;;;;;5072176;28;19985;-73
2023/09/29 10:14:35;;;;;;;;;;;;;;;;;;5072400;28;20012;-73
2023/09/29 10:17:01;;;;;;;;;;;;;;;;;;5072536;28;20362;-73
2023/09/29 10:19:27;;;;;;;;;;;;;;;;;;5072209;28;20441;-73
2023/09/29 10:21:53;;;;;;;;;;;;;;;;;;5071802;28;20008;-73
2023/09/29 10:24:22;;;;;;;;;;;;;;;;;;5071993;28;20086;-73
2023/09/29 10:26:48;;;;;;;;;;;;;;;;;;5070907;28;19993;-72
2023/09/29 10:29:14;;;;;;;;;;;;;;;;;;5071840;28;20361;-72
2023/09/29 10:31:41;;;;;;;;;;;;;;;;;;5071983;28;19993;-74
2023/09/29 10:34:08;;;;;;;;;;;;;;;;;;5071912;28;20491;-74
2023/09/29 10:36:34;;;;;;;;;;;;;;;;;;5071804;28;20023;-72
2023/09/29 10:39:04;;;;;;;;;;;;;;;;;;5071779;28;19986;-72
2023/09/29 10:41:32;;;;;;;;;;;;;;;;;;5070513;28;20414;-72
2023/09/29 10:43:57;;;;;;;;;;;;;;;;;;5071502;28;20085;-73
2023/09/29 10:46:25;;;;;;;;;;;;;;;;;;5071889;28;19989;-72
2023/09/29 10:48:52;;;;;;;;;;;;;;;;;;5071769;28;19996;-73
2023/09/29 10:51:18;;;;;;;;;;;;;;;;;;5071694;28;19989;-73
2023/09/29 10:53:44;;;;;;;;;;;;;;;;;;5071636;28;19985;-73
2023/09/29 10:56:10;;;;;;;;;;;;;;;;;;5071712;28;19996;-72
2023/09/29 10:58:36;;;;;;;;;;;;;;;;;;5071515;28;20445;-72
2023/09/29 11:01:02;;;;;;;;;;;;;;;;;;5071569;28;20027;-72
2023/09/29 11:03:28;;;;;;;;;;;;;;;;;;5071466;28;20009;-73
2023/09/29 11:05:54;;;;;;;;;;;;;;;;;;5071268;28;20047;-71
2023/09/29 11:08:20;;;;;;;;;;;;;;;;;;5071519;28;20011;-72
2023/09/29 11:10:46;;;;;;;;;;;;;;;;;;5071468;28;20331;-74
2023/09/29 11:13:12;;;;;;;;;;;;;;;;;;5071239;28;19985;-72
2023/09/29 11:15:38;;;;;;;;;;;;;;;;;;5071507;28;20220;-71
2023/09/29 11:18:04;;;;;;;;;;;;;;;;;;5071253;28;20521;-73
2023/09/29 11:20:30;;;;;;;;;;;;;;;;;;5071411;28;20076;-73
2023/09/29 11:22:56;;;;;;;;;;;;;;;;;;5071133;28;20013;-72
2023/09/29 11:25:22;;;;;;;;;;;;;;;;;;5071476;28;19989;-71
2023/09/29 11:27:48;;;;;;;;;;;;;;;;;;5071237;28;19996;-72
2023/09/29 11:30:14;;;;;;;;;;;;;;;;;;5071317;28;20122;-73
2023/09/29 11:32:40;;;;;;;;;;;;;;;;;;5071254;28;19982;-72
2023/09/29 11:35:13;;;;;;;;;;;;;;;;;;5071214;28;19986;-73
2023/09/29 11:37:39;;;;;;;;;;;;;;;;;;5070244;28;20020;-72
2023/09/29 11:40:11;;;;;;;;;;;;;;;;;;5071718;28;20410;-72
2023/09/29 11:42:37;;;;;;;;;;;;;;;;;;5072141;28;20017;-72
2023/09/29 11:45:07;;;;;;;;;;;;;;;;;;5075038;28;20028;-73
2023/09/29 11:47:33;;;;;;;;;;;;;;;;;;5075185;28;19992;-72
2023/09/29 11:50:00;;;;;;;;;;;;;;;;;;5075152;28;19986;-72
2023/09/29 11:52:26;;;;;;;;;;;;;;;;;;5074946;28;20067;-72
2023/09/29 11:54:52;;;;;;;;;;;;;;;;;;5074649;28;20047;-73
2023/09/29 11:57:18;;;;;;;;;;;;;;;;;;5074877;28;19989;-74
2023/09/29 11:59:44;;;;;;;;;;;;;;;;;;5074705;28;20088;-73
2023/09/29 12:02:10;;;;;;;;;;;;;;;;;;5074863;28;20096;-72
2023/09/29 12:04:36;;;;;;;;;;;;;;;;;;5074563;28;20372;-73
2023/09/29 12:07:02;;;;;;;;;;;;;;;;;;5074766;28;19989;-73
2023/09/29 12:09:28;;;;;;;;;;;;;;;;;;5074494;28;20026;-72
2023/09/29 12:11:54;;;;;;;;;;;;;;;;;;5074755;28;19989;-73
2023/09/29 12:14:21;;;;;;;;;;;;;;;;;;5074873;28;19987;-74
2023/09/29 12:16:47;;;;;;;;;;;;;;;;;;5074913;28;20031;-73
2023/09/29 12:19:13;;;;;;;;;;;;;;;;;;5074779;28;19989;-74
2023/09/29 12:21:39;;;;;;;;;;;;;;;;;;5074404;28;20052;-73
2023/09/29 12:24:05;;;;;;;;;;;;;;;;;;5073345;28;20426;-74
2023/09/29 12:26:31;;;;;;;;;;;;;;;;;;5074789;28;20408;-73
2023/09/29 12:28:57;;;;;;;;;;;;;;;;;;5074413;28;20422;-74
2023/09/29 12:31:23;;;;;;;;;;;;;;;;;;5074618;28;20067;-73
2023/09/29 12:33:50;;;;;;;;;;;;;;;;;;5074173;28;20434;-73
2023/09/29 12:36:16;;;;;;;;;;;;;;;;;;5074260;28;19986;-73
2023/09/29 12:38:43;;;;;;;;;;;;;;;;;;5074523;28;20080;-74
2023/09/29 12:41:09;;;;;;;;;;;;;;;;;;5074052;28;20414;-72
2023/09/29 12:43:35;;;;;;;;;;;;;;;;;;5073647;28;20115;-73
2023/09/29 12:46:01;;;;;;;;;;;;;;;;;;5074172;28;19993;-74
2023/09/29 12:48:27;;;;;;;;;;;;;;;;;;5074119;28;19990;-73
2023/09/29 12:50:53;;;;;;;;;;;;;;;;;;5074050;28;20499;-72
2023/09/29 12:53:19;;;;;;;;;;;;;;;;;;5073751;28;20453;-74
2023/09/29 12:55:45;;;;;;;;;;;;;;;;;;5073020;28;20077;-74
2023/09/29 12:58:11;;;;;;;;;;;;;;;;;;5073993;28;20327;-73
2023/09/29 13:00:36;;;;;;;;;;;;;;;;;;5073804;28;19981;-73
2023/09/29 13:03:05;;;;;;;;;;;;;;;;;;5073706;28;20110;-73
2023/09/29 13:05:31;;;;;;;;;;;;;;;;;;5073793;28;19998;-72
2023/09/29 13:07:58;;;;;;;;;;;;;;;;;;5074179;28;19989;-72
2023/09/29 13:10:24;;;;;;;;;;;;;;;;;;5073870;28;20024;-74
2023/09/29 13:12:54;;;;;;;;;;;;;;;;;;5073543;28;20082;-74
2023/09/29 13:15:21;;;;;;;;;;;;;;;;;;5073382;28;20019;-74
2023/09/29 13:17:47;;;;;;;;;;;;;;;;;;5073447;28;19988;-74
2023/09/29 13:20:12;;;;;;;;;;;;;;;;;;5073446;28;20064;-74
2023/09/29 13:22:38;;;;;;;;;;;;;;;;;;5073141;28;20013;-75
2023/09/29 13:25:04;;;;;;;;;;;;;;;;;;5073456;28;20043;-74
2023/09/29 13:27:33;;;;;;;;;;;;;;;;;;5073498;28;19985;-75
2023/09/29 13:29:59;;;;;;;;;;;;;;;;;;5073442;28;20011;-75
2023/09/29 13:32:25;;;;;;;;;;;;;;;;;;5073326;28;19981;-73
2023/09/29 13:34:52;;;;;;;;;;;;;;;;;;5073274;28;19986;-74
2023/09/29 13:37:18;;;;;;;;;;;;;;;;;;5073308;28;19989;-74
2023/09/29 13:39:44;;;;;;;;;;;;;;;;;;5073139;28;20194;-74
2023/09/29 13:42:10;;;;;;;;;;;;;;;;;;5072922;28;20116;-74
2023/09/29 13:44:36;;;;;;;;;;;;;;;;;;5072567;28;20107;-75
2023/09/29 13:47:02;;;;;;;;;;;;;;;;;;5072845;28;20088;-74
2023/09/29 13:49:28;;;;;;;;;;;;;;;;;;5072854;28;20429;-74
2023/09/29 13:51:54;;;;;;;;;;;;;;;;;;5072903;28;20051;-75
2023/09/29 13:54:20;;;;;;;;;;;;;;;;;;5071379;28;19985;-75
2023/09/29 13:56:46;;;;;;;;;;;;;;;;;;5072637;28;20028;-75
2023/09/29 13:59:12;;;;;;;;;;;;;;;;;;5072621;28;19986;-75
2023/09/29 14:01:38;;;;;;;;;;;;;;;;;;5072555;28;20027;-75
2023/09/29 14:04:04;;;;;;;;;;;;;;;;;;5072694;28;20000;-75
2023/09/29 14:06:30;;;;;;;;;;;;;;;;;;5071961;28;19998;-75
2023/09/29 14:08:56;;;;;;;;;;;;;;;;;;5072440;28;19982;-75
2023/09/29 14:11:22;;;;;;;;;;;;;;;;;;5072508;28;20485;-75
2023/09/29 14:13:49;;;;;;;;;;;;;;;;;;5072508;28;20028;-75
2023/09/29 14:16:15;;;;;;;;;;;;;;;;;;5072350;28;20041;-75
2023/09/29 14:18:41;;;;;;;;;;;;;;;;;;5072611;28;20088;-75
2023/09/29 14:21:07;;;;;;;;;;;;;;;;;;5072290;28;20469;-76
2023/09/29 14:23:33;;;;;;;;;;;;;;;;;;5072165;28;20021;-75
2023/09/29 14:25:59;;;;;;;;;;;;;;;;;;5072166;28;19990;-74
2023/09/29 14:28:25;;;;;;;;;;;;;;;;;;5072002;28;20346;-75
2023/09/29 14:30:51;;;;;;;;;;;;;;;;;;5071919;28;19992;-75
2023/09/29 14:33:17;;;;;;;;;;;;;;;;;;5072193;28;20080;-74
2023/09/29 14:35:43;;;;;;;;;;;;;;;;;;5072248;28;19987;-74
2023/09/29 14:38:10;;;;;;;;;;;;;;;;;;5071780;28;19986;-75
2023/09/29 14:40:36;;;;;;;;;;;;;;;;;;5070536;28;19997;-74
2023/09/29 14:43:02;;;;;;;;;;;;;;;;;;5071780;28;20013;-75
2023/09/29 14:45:28;;;;;;;;;;;;;;;;;;5071775;28;20267;-74
2023/09/29 14:47:54;;;;;;;;;;;;;;;;;;5071870;28;20108;-74
2023/09/29 14:50:20;;;;;;;;;;;;;;;;;;5071736;28;20071;-74
2023/09/29 14:52:46;;;;;;;;;;;;;;;;;;5071617;28;20021;-74
2023/09/29 14:55:12;;;;;;;;;;;;;;;;;;5071576;28;19986;-74
2023/09/29 14:57:38;;;;;;;;;;;;;;;;;;5071549;28;19982;-75
2023/09/29 15:00:07;;;;;;;;;;;;;;;;;;5071372;28;20529;-75
2023/09/29 15:02:33;;;;;;;;;;;;;;;;;;5071627;28;20013;-75
2023/09/29 15:04:59;;;;;;;;;;;;;;;;;;5072220;28;20004;-74
2023/09/29 15:07:27;;;;;;;;;;;;;;;;;;5071371;28;19990;-74
2023/09/29 15:09:53;;;;;;;;;;;;;;;;;;5071564;28;19986;-75
2023/09/29 15:12:19;;;;;;;;;;;;;;;;;;5070433;28;19985;-75
2023/09/29 15:14:45;;;;;;;;;;;;;;;;;;5071174;28;20327;-74
2023/09/29 15:17:11;;;;;;;;;;;;;;;;;;5070938;28;19986;-75
2023/09/29 15:19:42;;;;;;;;;;;;;;;;;;5071302;28;20020;-75
2023/09/29 15:22:08;;;;;;;;;;;;;;;;;;5071333;28;20032;-74
2023/09/29 15:24:35;;;;;;;;;;;;;;;;;;5070630;28;20354;-75
2023/09/29 15:27:01;;;;;;;;;;;;;;;;;;5071356;28;19986;-75
2023/09/29 15:29:27;;;;;;;;;;;;;;;;;;5069838;28;20119;-75
2023/09/29 15:31:53;;;;;;;;;;;;;;;;;;5071279;28;20012;-74
2023/09/29 15:34:18;;;;;;;;;;;;;;;;;;5071191;28;19981;-75
2023/09/29 15:36:45;;;;;;;;;;;;;;;;;;5071543;28;19989;-75
2023/09/29 15:39:13;;;;;;;;;;;;;;;;;;5071251;28;19986;-75
2023/09/29 15:41:39;;;;;;;;;;;;;;;;;;5071161;28;20059;-75
2023/09/29 15:44:05;;;;;;;;;;;;;;;;;;5071258;28;20513;-74
2023/09/29 15:46:31;;;;;;;;;;;;;;;;;;5071483;28;19986;-75
2023/09/29 15:48:57;;;;;;;;;;;;;;;;;;5071330;28;20021;-75
2023/09/29 15:51:23;;;;;;;;;;;;;;;;;;5071187;28;20408;-75
2023/09/29 15:53:49;;;;;;;;;;;;;;;;;;5071218;28;19986;-74
2023/09/29 15:56:15;;;;;;;;;;;;;;;;;;5071175;28;20050;-75
2023/09/29 15:58:42;;;;;;;;;;;;;;;;;;5071126;28;19986;-75
2023/09/29 16:01:08;;;;;;;;;;;;;;;;;;5071010;28;20068;-74
2023/09/29 16:03:34;;;;;;;;;;;;;;;;;;5071086;28;20385;-75
2023/09/29 16:06:00;;;;;;;;;;;;;;;;;;5071094;28;19997;-73
2023/09/29 16:08:26;;;;;;;;;;;;;;;;;;5070672;28;19985;-74
2023/09/29 16:10:53;;;;;;;;;;;;;;;;;;5070960;28;20065;-75
2023/09/29 16:13:21;;;;;;;;;;;;;;;;;;5071080;28;19989;-74
2023/09/29 16:15:47;;;;;;;;;;;;;;;;;;5071041;28;19985;-73
2023/09/29 16:18:13;;;;;;;;;;;;;;;;;;5070936;28;19991;-75
2023/09/29 16:20:39;;;;;;;;;;;;;;;;;;5068535;28;20449;-75
2023/09/29 16:23:05;;;;;;;;;;;;;;;;;;5046087;28;20067;-74
2023/09/29 16:25:31;;;;;;;;;;;;;;;;;;5036562;28;20006;-77
2023/09/29 16:27:57;;;;;;;;;;;;;;;;;;5028825;28;20001;-74
2023/09/29 16:30:23;;;;;;;;;;;;;;;;;;5049037;28;19997;-74
2023/09/29 16:32:49;;;;;;;;;;;;;;;;;;5038045;28;19986;-75
2023/09/29 16:35:15;;;;;;;;;;;;;;;;;;5039943;28;20044;-76
2023/09/29 16:37:41;;;;;;;;;;;;;;;;;;5033421;28;20343;-75
2023/09/29 16:40:07;;;;;;;;;;;;;;;;;;5033760;28;20416;-75
2023/09/29 16:42:33;;;;;;;;;;;;;;;;;;5043314;28;20428;-75